sensor_id;sensor_type;location;lat;lon;timestamp;pressure;altitude;pressure_sealevel;temperature
70123;BMP280;57489;37.404;24.920;2023-05-07T00:01:17;100073.84;;;21.57
70123;BMP280;57489;37.404;24.920;2023-05-07T00:06:17;100071.81;;;21.54
70123;BMP280;57489;37.404;24.920;2023-05-07T00:11:18;100071.38;;;21.52
70123;BMP280;57489;37.404;24.920;2023-05-07T00:16:18;100084.63;;;21.48
70123;BMP280;57489;37.404;24.920;2023-05-07T00:21:19;100094.84;;;21.46
70123;BMP280;57489;37.404;24.920;2023-05-07T00:26:19;100094.72;;;21.43
70123;BMP280;57489;37.404;24.920;2023-05-07T00:31:20;100097.75;;;21.41
70123;BMP280;57489;37.404;24.920;2023-05-07T00:36:20;100094.31;;;21.41
70123;BMP280;57489;37.404;24.920;2023-05-07T00:41:21;100099.94;;;21.39
70123;BMP280;57489;37.404;24.920;2023-05-07T00:46:21;100086.50;;;21.36
70123;BMP280;57489;37.404;24.920;2023-05-07T00:51:24;100091.84;;;21.36
70123;BMP280;57489;37.404;24.920;2023-05-07T00:56:25;100092.16;;;21.34
70123;BMP280;57489;37.404;24.920;2023-05-07T01:01:26;100098.94;;;21.32
70123;BMP280;57489;37.404;24.920;2023-05-07T01:06:27;100095.16;;;21.33
70123;BMP280;57489;37.404;24.920;2023-05-07T01:11:29;100088.25;;;21.32
70123;BMP280;57489;37.404;24.920;2023-05-07T01:16:29;100089.81;;;21.33
70123;BMP280;57489;37.404;24.920;2023-05-07T01:21:32;100081.34;;;21.31
70123;BMP280;57489;37.404;24.920;2023-05-07T01:26:33;100081.72;;;21.29
70123;BMP280;57489;37.404;24.920;2023-05-07T01:31:34;100092.69;;;21.28
70123;BMP280;57489;37.404;24.920;2023-05-07T01:36:37;100091.91;;;21.27
70123;BMP280;57489;37.404;24.920;2023-05-07T01:41:39;100092.59;;;21.24
70123;BMP280;57489;37.404;24.920;2023-05-07T01:46:39;100108.59;;;21.24
70123;BMP280;57489;37.404;24.920;2023-05-07T01:51:40;100096.03;;;21.25
70123;BMP280;57489;37.404;24.920;2023-05-07T01:56:41;100099.34;;;21.21
70123;BMP280;57489;37.404;24.920;2023-05-07T02:01:41;100096.69;;;21.21
70123;BMP280;57489;37.404;24.920;2023-05-07T02:06:42;100097.31;;;21.18
70123;BMP280;57489;37.404;24.920;2023-05-07T02:11:42;100099.22;;;21.18
70123;BMP280;57489;37.404;24.920;2023-05-07T02:16:43;100100.00;;;21.18
70123;BMP280;57489;37.404;24.920;2023-05-07T02:21:43;100088.44;;;21.14
70123;BMP280;57489;37.404;24.920;2023-05-07T02:26:43;100100.34;;;21.17
70123;BMP280;57489;37.404;24.920;2023-05-07T02:31:44;100099.22;;;21.18
70123;BMP280;57489;37.404;24.920;2023-05-07T02:36:45;100104.44;;;21.14
70123;BMP280;57489;37.404;24.920;2023-05-07T02:41:45;100113.53;;;21.13
70123;BMP280;57489;37.404;24.920;2023-05-07T02:46:45;100113.53;;;21.13
70123;BMP280;57489;37.404;24.920;2023-05-07T02:51:46;100126.44;;;21.11
70123;BMP280;57489;37.404;24.920;2023-05-07T02:56:46;100130.69;;;21.12
70123;BMP280;57489;37.404;24.920;2023-05-07T03:01:47;100143.56;;;21.10
70123;BMP280;57489;37.404;24.920;2023-05-07T03:06:47;100154.53;;;21.09
70123;BMP280;57489;37.404;24.920;2023-05-07T03:11:48;100163.69;;;21.08
70123;BMP280;57489;37.404;24.920;2023-05-07T03:16:49;100164.78;;;21.07
70123;BMP280;57489;37.404;24.920;2023-05-07T03:21:49;100175.75;;;21.05
70123;BMP280;57489;37.404;24.920;2023-05-07T03:26:50;100175.75;;;21.05
70123;BMP280;57489;37.404;24.920;2023-05-07T03:31:50;100162.13;;;21.07
70123;BMP280;57489;37.404;24.920;2023-05-07T03:36:51;100164.13;;;21.10
70123;BMP280;57489;37.404;24.920;2023-05-07T03:41:51;100166.00;;;21.09
70123;BMP280;57489;37.404;24.920;2023-05-07T03:46:52;100173.69;;;21.11
70123;BMP280;57489;37.404;24.920;2023-05-07T03:51:52;100176.03;;;21.12
70123;BMP280;57489;37.404;24.920;2023-05-07T03:56:52;100179.25;;;21.18
70123;BMP280;57489;37.404;24.920;2023-05-07T04:01:53;100192.41;;;21.23
70123;BMP280;57489;37.404;24.920;2023-05-07T04:06:53;100196.00;;;21.27
70123;BMP280;57489;37.404;24.920;2023-05-07T04:11:54;100209.44;;;21.31
70123;BMP280;57489;37.404;24.920;2023-05-07T04:16:54;100211.94;;;21.36
70123;BMP280;57489;37.404;24.920;2023-05-07T04:21:55;100216.19;;;21.37
70123;BMP280;57489;37.404;24.920;2023-05-07T04:26:55;100227.28;;;21.39
70123;BMP280;57489;37.404;24.920;2023-05-07T04:31:55;100231.31;;;21.45
70123;BMP280;57489;37.404;24.920;2023-05-07T04:36:58;100243.03;;;21.53
70123;BMP280;57489;37.404;24.920;2023-05-07T04:41:59;100237.06;;;21.56
70123;BMP280;57489;37.404;24.920;2023-05-07T04:46:59;100247.16;;;21.62
70123;BMP280;57489;37.404;24.920;2023-05-07T04:51:59;100251.22;;;21.68
70123;BMP280;57489;37.404;24.920;2023-05-07T04:57:00;100245.97;;;21.72
70123;BMP280;57489;37.404;24.920;2023-05-07T05:02:00;100252.38;;;21.80
70123;BMP280;57489;37.404;24.920;2023-05-07T05:07:01;100254.06;;;21.84
70123;BMP280;57489;37.404;24.920;2023-05-07T05:12:01;100263.28;;;21.87
70123;BMP280;57489;37.404;24.920;2023-05-07T05:17:02;100274.09;;;21.90
70123;BMP280;57489;37.404;24.920;2023-05-07T05:22:02;100276.88;;;21.94
70123;BMP280;57489;37.404;24.920;2023-05-07T05:27:02;100288.47;;;21.98
70123;BMP280;57489;37.404;24.920;2023-05-07T05:32:03;100298.84;;;21.99
70123;BMP280;57489;37.404;24.920;2023-05-07T05:37:04;100301.84;;;22.10
70123;BMP280;57489;37.404;24.920;2023-05-07T05:42:04;100305.91;;;22.16
70123;BMP280;57489;37.404;24.920;2023-05-07T05:47:05;100302.66;;;22.23
70123;BMP280;57489;37.404;24.920;2023-05-07T05:52:05;100303.69;;;22.30
70123;BMP280;57489;37.404;24.920;2023-05-07T05:57:05;100306.16;;;22.36
70123;BMP280;57489;37.404;24.920;2023-05-07T06:02:06;100304.34;;;22.40
70123;BMP280;57489;37.404;24.920;2023-05-07T06:07:07;100307.25;;;22.47
70123;BMP280;57489;37.404;24.920;2023-05-07T06:12:07;100297.91;;;22.53
70123;BMP280;57489;37.404;24.920;2023-05-07T06:17:07;100306.69;;;22.53
70123;BMP280;57489;37.404;24.920;2023-05-07T06:22:08;100312.84;;;22.54
70123;BMP280;57489;37.404;24.920;2023-05-07T06:27:08;100317.53;;;22.57
70123;BMP280;57489;37.404;24.920;2023-05-07T06:32:11;100315.19;;;22.55
70123;BMP280;57489;37.404;24.920;2023-05-07T06:37:11;100320.75;;;22.63
70123;BMP280;57489;37.404;24.920;2023-05-07T06:42:12;100330.00;;;22.65
70123;BMP280;57489;37.404;24.920;2023-05-07T06:47:12;100337.03;;;22.70
70123;BMP280;57489;37.404;24.920;2023-05-07T06:52:13;100336.13;;;22.66
70123;BMP280;57489;37.404;24.920;2023-05-07T06:57:13;100341.59;;;22.69
70123;BMP280;57489;37.404;24.920;2023-05-07T07:02:13;100335.56;;;22.72
70123;BMP280;57489;37.404;24.920;2023-05-07T07:07:14;100334.69;;;22.80
70123;BMP280;57489;37.404;24.920;2023-05-07T07:12:14;100334.47;;;22.85
70123;BMP280;57489;37.404;24.920;2023-05-07T07:17:15;100323.09;;;23.01
70123;BMP280;57489;37.404;24.920;2023-05-07T07:22:16;100321.47;;;23.12
70123;BMP280;57489;37.404;24.920;2023-05-07T07:27:16;100319.78;;;23.20
70123;BMP280;57489;37.404;24.920;2023-05-07T07:32:17;100326.81;;;23.24
70123;BMP280;57489;37.404;24.920;2023-05-07T07:37:17;100345.75;;;23.31
70123;BMP280;57489;37.404;24.920;2023-05-07T07:42:18;100348.41;;;23.44
70123;BMP280;57489;37.404;24.920;2023-05-07T07:47:18;100356.81;;;23.42
70123;BMP280;57489;37.404;24.920;2023-05-07T07:52:19;100361.56;;;23.49
70123;BMP280;57489;37.404;24.920;2023-05-07T07:57:19;100375.84;;;23.53
70123;BMP280;57489;37.404;24.920;2023-05-07T08:02:19;100381.66;;;23.55
70123;BMP280;57489;37.404;24.920;2023-05-07T08:07:20;100375.41;;;23.51
70123;BMP280;57489;37.404;24.920;2023-05-07T08:12:20;100382.66;;;23.50
70123;BMP280;57489;37.404;24.920;2023-05-07T08:17:21;100374.44;;;23.71
70123;BMP280;57489;37.404;24.920;2023-05-07T08:22:21;100382.34;;;23.80
70123;BMP280;57489;37.404;24.920;2023-05-07T08:27:22;100384.00;;;23.84
70123;BMP280;57489;37.404;24.920;2023-05-07T08:32:22;100375.50;;;23.82
70123;BMP280;57489;37.404;24.920;2023-05-07T08:37:22;100389.16;;;23.77
70123;BMP280;57489;37.404;24.920;2023-05-07T08:42:23;100385.06;;;23.95
70123;BMP280;57489;37.404;24.920;2023-05-07T08:47:28;100385.63;;;23.89
70123;BMP280;57489;37.404;24.920;2023-05-07T08:52:29;100389.56;;;23.91
70123;BMP280;57489;37.404;24.920;2023-05-07T08:57:30;100398.88;;;23.98
70123;BMP280;57489;37.404;24.920;2023-05-07T09:02:30;100387.38;;;23.97
70123;BMP280;57489;37.404;24.920;2023-05-07T09:07:31;100381.78;;;24.02
70123;BMP280;57489;37.404;24.920;2023-05-07T09:12:31;100384.81;;;24.01
70123;BMP280;57489;37.404;24.920;2023-05-07T09:17:32;100385.72;;;23.92
70123;BMP280;57489;37.404;24.920;2023-05-07T09:22:33;100384.88;;;23.88
70123;BMP280;57489;37.404;24.920;2023-05-07T09:27:34;100389.34;;;23.84
70123;BMP280;57489;37.404;24.920;2023-05-07T09:32:35;100386.94;;;23.95
70123;BMP280;57489;37.404;24.920;2023-05-07T09:37:36;100392.50;;;24.02
70123;BMP280;57489;37.404;24.920;2023-05-07T09:42:37;100384.56;;;24.06
70123;BMP280;57489;37.404;24.920;2023-05-07T09:47:39;100376.75;;;24.01
70123;BMP280;57489;37.404;24.920;2023-05-07T09:52:43;100385.91;;;24.00
70123;BMP280;57489;37.404;24.920;2023-05-07T09:57:45;100372.69;;;24.07
70123;BMP280;57489;37.404;24.920;2023-05-07T10:02:47;100367.44;;;24.26
70123;BMP280;57489;37.404;24.920;2023-05-07T10:07:48;100368.41;;;24.49
70123;BMP280;57489;37.404;24.920;2023-05-07T10:12:50;100363.66;;;24.59
70123;BMP280;57489;37.404;24.920;2023-05-07T10:17:51;100354.81;;;24.58
70123;BMP280;57489;37.404;24.920;2023-05-07T10:22:56;100357.75;;;24.69
70123;BMP280;57489;37.404;24.920;2023-05-07T10:28:00;100363.19;;;24.72
70123;BMP280;57489;37.404;24.920;2023-05-07T10:33:03;100367.94;;;24.79
70123;BMP280;57489;37.404;24.920;2023-05-07T10:38:04;100360.00;;;24.67
70123;BMP280;57489;37.404;24.920;2023-05-07T10:43:06;100354.97;;;24.49
70123;BMP280;57489;37.404;24.920;2023-05-07T10:58:29;100369.63;;;24.52
70123;BMP280;57489;37.404;24.920;2023-05-07T11:03:30;100366.84;;;24.48
70123;BMP280;57489;37.404;24.920;2023-05-07T11:08:52;100369.03;;;24.59
70123;BMP280;57489;37.404;24.920;2023-05-07T11:13:53;100364.44;;;24.59
70123;BMP280;57489;37.404;24.920;2023-05-07T11:18:55;100373.69;;;24.62
70123;BMP280;57489;37.404;24.920;2023-05-07T11:23:56;100376.25;;;24.58
70123;BMP280;57489;37.404;24.920;2023-05-07T11:28:57;100371.34;;;24.44
70123;BMP280;57489;37.404;24.920;2023-05-07T11:33:57;100369.28;;;24.38
70123;BMP280;57489;37.404;24.920;2023-05-07T11:38:58;100363.84;;;24.34
70123;BMP280;57489;37.404;24.920;2023-05-07T11:43:59;100365.41;;;24.35
70123;BMP280;57489;37.404;24.920;2023-05-07T11:49:00;100365.53;;;24.42
70123;BMP280;57489;37.404;24.920;2023-05-07T11:54:03;100367.38;;;24.38
70123;BMP280;57489;37.404;24.920;2023-05-07T11:59:04;100376.13;;;24.35
70123;BMP280;57489;37.404;24.920;2023-05-07T12:04:04;100381.03;;;24.33
70123;BMP280;57489;37.404;24.920;2023-05-07T12:09:05;100382.06;;;24.60
70123;BMP280;57489;37.404;24.920;2023-05-07T12:14:05;100388.38;;;24.68
70123;BMP280;57489;37.404;24.920;2023-05-07T12:19:06;100382.44;;;24.59
70123;BMP280;57489;37.404;24.920;2023-05-07T12:24:08;100370.50;;;24.56
70123;BMP280;57489;37.404;24.920;2023-05-07T12:29:08;100362.44;;;24.40
70123;BMP280;57489;37.404;24.920;2023-05-07T12:34:11;100353.97;;;24.38
70123;BMP280;57489;37.404;24.920;2023-05-07T12:39:11;100355.78;;;24.34
70123;BMP280;57489;37.404;24.920;2023-05-07T12:44:15;100358.72;;;24.45
70123;BMP280;57489;37.404;24.920;2023-05-07T12:49:15;100357.16;;;24.44
70123;BMP280;57489;37.404;24.920;2023-05-07T12:54:37;100356.13;;;24.48
70123;BMP280;57489;37.404;24.920;2023-05-07T12:59:40;100360.28;;;24.46
70123;BMP280;57489;37.404;24.920;2023-05-07T13:04:41;100360.34;;;24.81
70123;BMP280;57489;37.404;24.920;2023-05-07T13:09:41;100358.13;;;24.87
70123;BMP280;57489;37.404;24.920;2023-05-07T13:14:41;100356.16;;;24.84
70123;BMP280;57489;37.404;24.920;2023-05-07T13:19:42;100350.44;;;24.85
70123;BMP280;57489;37.404;24.920;2023-05-07T13:24:43;100357.38;;;24.86
70123;BMP280;57489;37.404;24.920;2023-05-07T13:29:43;100364.38;;;24.91
70123;BMP280;57489;37.404;24.920;2023-05-07T13:34:43;100350.59;;;24.92
70123;BMP280;57489;37.404;24.920;2023-05-07T13:39:44;100361.75;;;24.94
70123;BMP280;57489;37.404;24.920;2023-05-07T13:44:44;100361.75;;;24.94
70123;BMP280;57489;37.404;24.920;2023-05-07T13:49:45;100365.56;;;24.93
70123;BMP280;57489;37.404;24.920;2023-05-07T13:54:45;100370.69;;;24.98
70123;BMP280;57489;37.404;24.920;2023-05-07T13:59:46;100370.69;;;24.98
70123;BMP280;57489;37.404;24.920;2023-05-07T14:04:46;100361.97;;;24.86
70123;BMP280;57489;37.404;24.920;2023-05-07T14:09:46;100361.84;;;24.82
70123;BMP280;57489;37.404;24.920;2023-05-07T14:14:47;100376.28;;;24.74
70123;BMP280;57489;37.404;24.920;2023-05-07T14:19:47;100372.88;;;24.77
70123;BMP280;57489;37.404;24.920;2023-05-07T14:24:48;100382.69;;;24.54
70123;BMP280;57489;37.404;24.920;2023-05-07T14:29:49;100384.06;;;24.47
70123;BMP280;57489;37.404;24.920;2023-05-07T14:34:49;100392.16;;;24.63
70123;BMP280;57489;37.404;24.920;2023-05-07T14:39:50;100392.16;;;24.63
70123;BMP280;57489;37.404;24.920;2023-05-07T14:44:50;100388.38;;;24.68
70123;BMP280;57489;37.404;24.920;2023-05-07T14:49:51;100383.72;;;24.65
70123;BMP280;57489;37.404;24.920;2023-05-07T14:54:51;100373.84;;;24.69
70123;BMP280;57489;37.404;24.920;2023-05-07T14:59:52;100376.44;;;24.65
70123;BMP280;57489;37.404;24.920;2023-05-07T15:04:52;100379.06;;;24.62
70123;BMP280;57489;37.404;24.920;2023-05-07T15:09:53;100375.22;;;24.63
70123;BMP280;57489;37.404;24.920;2023-05-07T15:14:54;100370.56;;;24.60
70123;BMP280;57489;37.404;24.920;2023-05-07T15:19:54;100383.53;;;24.58
70123;BMP280;57489;37.404;24.920;2023-05-07T15:24:54;100369.69;;;24.56
70123;BMP280;57489;37.404;24.920;2023-05-07T15:29:55;100372.63;;;24.50
70123;BMP280;57489;37.404;24.920;2023-05-07T15:34:55;100364.97;;;24.49
70123;BMP280;57489;37.404;24.920;2023-05-07T15:39:56;100369.53;;;24.48
70123;BMP280;57489;37.404;24.920;2023-05-07T15:44:56;100367.09;;;24.43
70123;BMP280;57489;37.404;24.920;2023-05-07T15:49:57;100369.69;;;24.40
70123;BMP280;57489;37.404;24.920;2023-05-07T15:55:01;100365.41;;;24.35
70123;BMP280;57489;37.404;24.920;2023-05-07T16:00:01;100365.66;;;24.30
70123;BMP280;57489;37.404;24.920;2023-05-07T16:05:02;100358.38;;;24.31
70123;BMP280;57489;37.404;24.920;2023-05-07T16:10:04;100358.03;;;24.32
70123;BMP280;57489;37.404;24.920;2023-05-07T16:15:05;100356.81;;;24.30
70123;BMP280;57489;37.404;24.920;2023-05-07T16:20:06;100341.66;;;24.21
70123;BMP280;57489;37.404;24.920;2023-05-07T16:25:07;100349.63;;;24.18
70123;BMP280;57489;37.404;24.920;2023-05-07T16:30:07;100360.88;;;24.08
70123;BMP280;57489;37.404;24.920;2023-05-07T16:35:08;100366.13;;;24.04
70123;BMP280;57489;37.404;24.920;2023-05-07T16:40:09;100368.28;;;23.99
70123;BMP280;57489;37.404;24.920;2023-05-07T16:45:10;100375.00;;;23.92
70123;BMP280;57489;37.404;24.920;2023-05-07T16:50:10;100374.81;;;23.85
70123;BMP280;57489;37.404;24.920;2023-05-07T16:55:11;100386.69;;;23.84
70123;BMP280;57489;37.404;24.920;2023-05-07T17:00:12;100389.16;;;23.77
70123;BMP280;57489;37.404;24.920;2023-05-07T17:05:13;100393.63;;;23.73
70123;BMP280;57489;37.404;24.920;2023-05-07T17:10:13;100388.06;;;23.66
70123;BMP280;57489;37.404;24.920;2023-05-07T17:15:13;100391.41;;;23.63
70123;BMP280;57489;37.404;24.920;2023-05-07T17:20:14;100395.47;;;23.57
70123;BMP280;57489;37.404;24.920;2023-05-07T17:25:14;100399.84;;;23.49
70123;BMP280;57489;37.404;24.920;2023-05-07T17:30:15;100407.69;;;23.42
70123;BMP280;57489;37.404;24.920;2023-05-07T17:35:16;100412.94;;;23.38
70123;BMP280;57489;37.404;24.920;2023-05-07T17:40:20;100420.06;;;23.34
70123;BMP280;57489;37.404;24.920;2023-05-07T17:45:21;100422.09;;;23.37
70123;BMP280;57489;37.404;24.920;2023-05-07T17:50:21;100418.41;;;23.30
70123;BMP280;57489;37.404;24.920;2023-05-07T17:55:22;100417.50;;;23.26
70123;BMP280;57489;37.404;24.920;2023-05-07T18:00:22;100420.44;;;23.21
70123;BMP280;57489;37.404;24.920;2023-05-07T18:05:23;100423.44;;;23.19
70123;BMP280;57489;37.404;24.920;2023-05-07T18:10:23;100435.91;;;23.15
70123;BMP280;57489;37.404;24.920;2023-05-07T18:15:24;100443.50;;;23.25
70123;BMP280;57489;37.404;24.920;2023-05-07T18:20:24;100439.94;;;23.33
70123;BMP280;57489;37.404;24.920;2023-05-07T18:25:25;100441.47;;;23.34
70123;BMP280;57489;37.404;24.920;2023-05-07T18:30:25;100443.63;;;23.29
70123;BMP280;57489;37.404;24.920;2023-05-07T18:35:26;100449.13;;;23.20
70123;BMP280;57489;37.404;24.920;2023-05-07T18:40:26;100450.41;;;23.26
70123;BMP280;57489;37.404;24.920;2023-05-07T18:45:27;100442.63;;;23.21
70123;BMP280;57489;37.404;24.920;2023-05-07T18:50:27;100450.22;;;23.19
70123;BMP280;57489;37.404;24.920;2023-05-07T18:55:28;100451.31;;;23.18
70123;BMP280;57489;37.404;24.920;2023-05-07T19:00:28;100455.56;;;23.19
70123;BMP280;57489;37.404;24.920;2023-05-07T19:05:29;100458.69;;;23.21
70123;BMP280;57489;37.404;24.920;2023-05-07T19:10:29;100454.47;;;23.20
70123;BMP280;57489;37.404;24.920;2023-05-07T19:15:30;100455.56;;;23.19
70123;BMP280;57489;37.404;24.920;2023-05-07T19:20:30;100467.63;;;23.13
70123;BMP280;57489;37.404;24.920;2023-05-07T19:25:30;100464.50;;;23.11
70123;BMP280;57489;37.404;24.920;2023-05-07T19:30:31;100475.88;;;23.08
70123;BMP280;57489;37.404;24.920;2023-05-07T19:35:32;100477.66;;;23.16
70123;BMP280;57489;37.404;24.920;2023-05-07T19:40:32;100487.25;;;23.17
70123;BMP280;57489;37.404;24.920;2023-05-07T19:45:33;100496.19;;;23.21
70123;BMP280;57489;37.404;24.920;2023-05-07T19:50:33;100502.41;;;23.25
70123;BMP280;57489;37.404;24.920;2023-05-07T19:55:34;100498.84;;;23.33
70123;BMP280;57489;37.404;24.920;2023-05-07T20:00:34;100502.00;;;23.35
70123;BMP280;57489;37.404;24.920;2023-05-07T20:05:35;100509.56;;;23.33
70123;BMP280;57489;37.404;24.920;2023-05-07T20:10:35;100501.09;;;23.44
70123;BMP280;57489;37.404;24.920;2023-05-07T20:15:37;100511.34;;;23.41
70123;BMP280;57489;37.404;24.920;2023-05-07T20:20:37;100516.47;;;23.47
70123;BMP280;57489;37.404;24.920;2023-05-07T20:25:39;100505.75;;;23.34
70123;BMP280;57489;37.404;24.920;2023-05-07T20:30:40;100516.06;;;23.32
70123;BMP280;57489;37.404;24.920;2023-05-07T20:35:40;100515.38;;;23.35
70123;BMP280;57489;37.404;24.920;2023-05-07T20:40:41;100516.69;;;23.29
70123;BMP280;57489;37.404;24.920;2023-05-07T20:45:41;100510.91;;;23.27
70123;BMP280;57489;37.404;24.920;2023-05-07T20:50:42;100521.81;;;23.22
70123;BMP280;57489;37.404;24.920;2023-05-07T20:55:43;100521.28;;;23.17
70123;BMP280;57489;37.404;24.920;2023-05-07T21:00:43;100508.19;;;23.15
70123;BMP280;57489;37.404;24.920;2023-05-07T21:05:54;100518.03;;;23.11
70123;BMP280;57489;37.404;24.920;2023-05-07T21:10:55;100514.22;;;23.12
70123;BMP280;57489;37.404;24.920;2023-05-07T21:15:55;100511.91;;;23.10
70123;BMP280;57489;37.404;24.920;2023-05-07T21:20:56;100525.72;;;23.12
70123;BMP280;57489;37.404;24.920;2023-05-07T21:25:56;100526.75;;;23.20
70123;BMP280;57489;37.404;24.920;2023-05-07T21:30:57;100535.09;;;23.19
70123;BMP280;57489;37.404;24.920;2023-05-07T21:35:57;100536.19;;;23.05
70123;BMP280;57489;37.404;24.920;2023-05-07T21:40:58;100536.34;;;23.09
70123;BMP280;57489;37.404;24.920;2023-05-07T21:45:58;100539.88;;;23.01
70123;BMP280;57489;37.404;24.920;2023-05-07T21:51:05;100529.72;;;23.06
70123;BMP280;57489;37.404;24.920;2023-05-07T21:56:06;100524.50;;;23.10
70123;BMP280;57489;37.404;24.920;2023-05-07T22:01:06;100522.69;;;22.90
70123;BMP280;57489;37.404;24.920;2023-05-07T22:06:07;100523.00;;;22.76
70123;BMP280;57489;37.404;24.920;2023-05-07T22:11:07;100517.25;;;22.65
70123;BMP280;57489;37.404;24.920;2023-05-07T22:16:08;100523.47;;;22.57
70123;BMP280;57489;37.404;24.920;2023-05-07T22:21:08;100525.72;;;22.55
70123;BMP280;57489;37.404;24.920;2023-05-07T22:26:10;100541.13;;;22.49
70123;BMP280;57489;37.404;24.920;2023-05-07T22:31:11;100532.69;;;22.47
70123;BMP280;57489;37.404;24.920;2023-05-07T22:36:11;100524.84;;;22.42
70123;BMP280;57489;37.404;24.920;2023-05-07T22:41:11;100527.88;;;22.41
70123;BMP280;57489;37.404;24.920;2023-05-07T22:46:12;100530.75;;;22.36
70123;BMP280;57489;37.404;24.920;2023-05-07T22:51:12;100526.72;;;22.29
70123;BMP280;57489;37.404;24.920;2023-05-07T22:56:13;100525.44;;;22.27
70123;BMP280;57489;37.404;24.920;2023-05-07T23:01:16;100533.34;;;22.23
70123;BMP280;57489;37.404;24.920;2023-05-07T23:06:17;100536.66;;;22.20
70123;BMP280;57489;37.404;24.920;2023-05-07T23:11:17;100525.88;;;22.17
70123;BMP280;57489;37.404;24.920;2023-05-07T23:16:18;100526.97;;;22.16
70123;BMP280;57489;37.404;24.920;2023-05-07T23:21:18;100529.81;;;22.11
70123;BMP280;57489;37.404;24.920;2023-05-07T23:26:18;100515.66;;;22.10
70123;BMP280;57489;37.404;24.920;2023-05-07T23:31:19;100519.00;;;22.07
70123;BMP280;57489;37.404;24.920;2023-05-07T23:36:19;100504.41;;;22.04
70123;BMP280;57489;37.404;24.920;2023-05-07T23:41:20;100493.72;;;22.04
70123;BMP280;57489;37.404;24.920;2023-05-07T23:46:20;100500.47;;;22.02
70123;BMP280;57489;37.404;24.920;2023-05-07T23:51:21;100483.69;;;22.01
70123;BMP280;57489;37.404;24.920;2023-05-07T23:56:21;100475.97;;;22.00
